createdAt,value
2022-11-26T00:01:28.235Z,13.73
2022-11-26T00:03:57.798Z,12.77
2022-11-26T00:06:42.268Z,13.03
2022-11-26T00:09:16.716Z,13.43
2022-11-26T00:11:50.095Z,12.07
2022-11-26T00:14:18.115Z,13.40
2022-11-26T00:16:47.363Z,13.93
2022-11-26T00:19:15.585Z,13.13
2022-11-26T00:21:44.876Z,14.33
2022-11-26T00:24:27.276Z,13.70
2022-11-26T00:26:59.505Z,13.70
2022-11-26T00:29:26.818Z,13.20
2022-11-26T00:31:57.098Z,13.30
2022-11-26T00:34:25.516Z,13.70
2022-11-26T00:36:52.725Z,14.67
2022-11-26T00:39:26.117Z,14.77
2022-11-26T00:41:53.936Z,13.73
2022-11-26T00:44:25.242Z,14.33
2022-11-26T00:46:52.698Z,14.20
2022-11-26T00:49:21.331Z,14.30
2022-11-26T00:51:48.819Z,14.87
2022-11-26T00:54:18.785Z,15.03
2022-11-26T00:56:51.216Z,14.20
2022-11-26T00:59:23.878Z,14.40
2022-11-26T01:01:51.272Z,13.67
2022-11-26T01:04:25.576Z,14.07
2022-11-26T01:06:56.156Z,15.10
2022-11-26T01:09:33.556Z,14.63
2022-11-26T01:12:00.846Z,14.50
2022-11-26T01:14:33.083Z,14.63
2022-11-26T01:17:00.539Z,14.97
2022-11-26T01:19:32.265Z,13.50
2022-11-26T01:21:59.607Z,15.17
2022-11-26T01:24:26.736Z,14.97
2022-11-26T01:26:55.091Z,14.30
2022-11-26T01:29:22.395Z,14.23
2022-11-26T01:31:50.621Z,14.33
2022-11-26T01:34:19.958Z,16.00
2022-11-26T01:36:48.166Z,13.90
2022-11-26T01:39:19.596Z,13.80
2022-11-26T01:42:24.268Z,13.43
2022-11-26T01:44:51.530Z,12.80
2022-11-26T01:47:28.195Z,12.17
2022-11-26T01:50:30.165Z,12.27
2022-11-26T01:53:10.756Z,12.30
2022-11-26T01:56:11.527Z,11.33
2022-11-26T01:58:43.886Z,11.90
2022-11-26T02:01:13.921Z,11.40
2022-11-26T02:04:23.888Z,12.23
2022-11-26T02:06:52.646Z,11.30
2022-11-26T02:09:22.197Z,12.30
2022-11-26T02:11:49.938Z,11.97
2022-11-26T02:14:37.060Z,16.67
2022-11-26T02:17:31.006Z,15.40
2022-11-26T02:20:36.751Z,15.00
2022-11-26T02:23:30.161Z,13.03
2022-11-26T02:26:28.888Z,13.67
2022-11-26T02:29:22.056Z,13.97
2022-11-26T02:32:14.305Z,13.93
2022-11-26T02:35:25.789Z,15.20
2022-11-26T02:38:06.618Z,14.23
2022-11-26T02:40:34.261Z,14.33
2022-11-26T02:43:01.517Z,14.40
2022-11-26T02:45:39.141Z,14.97
2022-11-26T02:48:14.277Z,15.50
2022-11-26T02:51:10.656Z,14.83
2022-11-26T02:53:40.727Z,15.53
2022-11-26T02:56:15.886Z,16.13
2022-11-26T02:58:49.535Z,15.37
2022-11-26T03:01:37.537Z,16.03
2022-11-26T03:04:12.432Z,16.17
2022-11-26T03:06:41.528Z,16.07
2022-11-26T03:09:08.727Z,16.93
2022-11-26T03:11:36.104Z,15.83
2022-11-26T03:14:03.356Z,15.80
2022-11-26T03:16:30.830Z,16.27
2022-11-26T03:18:59.095Z,15.40
2022-11-26T03:21:27.926Z,17.10
2022-11-26T03:23:57.137Z,16.07
2022-11-26T03:26:25.436Z,16.60
2022-11-26T03:28:53.626Z,16.50
2022-11-26T03:31:24.984Z,15.73
2022-11-26T03:33:54.469Z,15.97
2022-11-26T03:36:23.638Z,16.47
2022-11-26T03:38:54.834Z,15.37
2022-11-26T03:41:23.607Z,16.13
2022-11-26T03:43:51.826Z,16.47
2022-11-26T03:46:19.226Z,16.67
2022-11-26T03:48:49.577Z,16.07
2022-11-26T03:51:17.907Z,16.23
2022-11-26T03:53:47.818Z,15.87
2022-11-26T03:56:19.156Z,16.27
2022-11-26T03:58:46.435Z,15.30
2022-11-26T04:01:14.838Z,13.43
2022-11-26T04:03:44.229Z,14.47
2022-11-26T04:06:11.366Z,14.53
2022-11-26T04:08:38.656Z,15.63
2022-11-26T04:11:06.028Z,15.20
2022-11-26T04:13:34.887Z,14.50
2022-11-26T04:16:04.166Z,13.83
2022-11-26T04:18:31.356Z,13.17
2022-11-26T04:20:58.638Z,12.80
2022-11-26T04:23:28.361Z,12.87
2022-11-26T04:25:55.587Z,12.30
2022-11-26T04:28:24.846Z,13.20
2022-11-26T04:30:53.117Z,11.80
2022-11-26T04:33:22.433Z,11.77
2022-11-26T04:35:51.136Z,12.73
2022-11-26T04:38:24.173Z,12.03
2022-11-26T04:40:52.938Z,12.67
2022-11-26T04:43:21.218Z,12.07
2022-11-26T04:45:50.544Z,11.73
2022-11-26T04:48:18.898Z,13.03
2022-11-26T04:50:48.497Z,12.40
2022-11-26T04:53:22.040Z,11.10
2022-11-26T04:55:51.707Z,10.97
2022-11-26T04:58:23.977Z,10.60
2022-11-26T05:00:51.624Z,11.10
2022-11-26T05:03:19.677Z,10.50
2022-11-26T05:05:47.968Z,10.80
2022-11-26T05:08:15.648Z,10.90
2022-11-26T05:10:42.968Z,10.87
2022-11-26T05:13:11.238Z,10.13
2022-11-26T05:15:39.527Z,11.33
2022-11-26T05:18:07.757Z,10.60
2022-11-26T05:20:35.056Z,11.30
2022-11-26T05:23:04.667Z,11.37
2022-11-26T05:25:38.317Z,10.70
2022-11-26T05:28:06.657Z,9.47
2022-11-26T05:30:34.518Z,10.80
2022-11-26T05:33:03.790Z,11.00
2022-11-26T05:35:31.037Z,10.40
2022-11-26T05:37:59.697Z,10.87
2022-11-26T05:40:26.933Z,11.10
2022-11-26T05:42:54.218Z,10.33
2022-11-26T05:45:21.437Z,10.73
2022-11-26T05:47:48.737Z,10.63
2022-11-26T05:50:15.981Z,9.93
2022-11-26T05:52:45.459Z,10.17
2022-11-26T05:55:13.806Z,10.57
2022-11-26T05:57:45.116Z,10.57
2022-11-26T06:00:13.337Z,10.33
2022-11-26T06:02:41.059Z,10.60
2022-11-26T06:05:12.417Z,11.33
2022-11-26T06:07:44.602Z,10.33
2022-11-26T06:10:15.037Z,10.23
2022-11-26T06:12:44.248Z,9.80
2022-11-26T06:15:11.667Z,9.23
2022-11-26T06:17:47.068Z,9.30
2022-11-26T06:20:15.846Z,8.97
2022-11-26T06:22:45.036Z,8.97
2022-11-26T06:25:14.461Z,9.03
2022-11-26T06:27:42.193Z,9.00
2022-11-26T06:30:12.348Z,9.20
2022-11-26T06:32:44.817Z,10.77
2022-11-26T06:35:13.147Z,8.90
2022-11-26T06:37:42.476Z,9.60
2022-11-26T06:40:16.187Z,10.47
2022-11-26T06:42:47.596Z,10.90
2022-11-26T06:45:14.948Z,12.23
2022-11-26T06:47:43.287Z,11.77
2022-11-26T06:50:15.020Z,10.90
2022-11-26T06:52:42.686Z,10.17
2022-11-26T06:55:10.907Z,10.57
2022-11-26T06:57:38.606Z,10.63
2022-11-26T07:00:07.278Z,10.33
2022-11-26T07:02:34.574Z,20.03
2022-11-26T07:05:03.115Z,13.90
2022-11-26T07:07:40.787Z,15.47
2022-11-26T07:10:08.717Z,11.13
2022-11-26T07:12:36.878Z,10.93
2022-11-26T07:15:10.617Z,20.00
2022-11-26T07:17:37.849Z,12.33
2022-11-26T07:20:08.607Z,13.00
2022-11-26T07:22:36.167Z,13.07
2022-11-26T07:25:12.140Z,12.23
2022-11-26T07:27:41.847Z,11.07
2022-11-26T07:30:10.637Z,11.20
2022-11-26T07:32:39.981Z,10.23
2022-11-26T07:35:09.206Z,10.50
2022-11-26T07:37:36.706Z,10.47
2022-11-26T07:40:06.006Z,10.47
2022-11-26T07:42:34.286Z,9.53
2022-11-26T07:45:01.455Z,9.60
2022-11-26T07:47:30.656Z,10.47
2022-11-26T07:49:58.976Z,9.83
2022-11-26T07:52:31.327Z,10.60
2022-11-26T07:54:59.582Z,10.47
2022-11-26T07:57:27.853Z,10.63
2022-11-26T07:59:56.061Z,10.67
2022-11-26T08:02:25.410Z,9.70
2022-11-26T08:04:53.092Z,10.37
2022-11-26T08:07:27.578Z,10.70
2022-11-26T08:09:56.670Z,12.07
2022-11-26T08:12:23.943Z,7.37
2022-11-26T08:14:54.342Z,7.53
2022-11-26T08:17:21.681Z,5.70
2022-11-26T08:19:48.882Z,6.13
2022-11-26T08:22:17.181Z,5.90
2022-11-26T08:24:44.459Z,5.77
2022-11-26T08:27:13.750Z,5.90
2022-11-26T08:29:40.971Z,7.33
2022-11-26T08:32:10.180Z,5.97
2022-11-26T08:34:38.183Z,3.87
2022-11-26T08:37:05.613Z,4.33
2022-11-26T08:39:32.912Z,3.93
2022-11-26T08:42:00.209Z,3.70
2022-11-26T08:44:29.050Z,4.90
2022-11-26T08:46:56.263Z,4.30
2022-11-26T08:49:23.572Z,4.20
2022-11-26T08:51:50.750Z,7.80
2022-11-26T08:54:18.100Z,6.10
2022-11-26T08:56:46.816Z,6.60
2022-11-26T08:59:14.470Z,7.17
2022-11-26T09:01:41.918Z,5.30
2022-11-26T09:04:09.194Z,4.53
2022-11-26T09:06:40.992Z,4.97
2022-11-26T09:09:13.036Z,5.80
2022-11-26T09:11:42.943Z,6.70
2022-11-26T09:14:11.845Z,9.43
2022-11-26T09:16:39.465Z,6.43
2022-11-26T09:19:07.689Z,4.67
2022-11-26T09:21:36.197Z,6.23
2022-11-26T09:24:03.564Z,11.30
2022-11-26T09:26:32.272Z,9.60
2022-11-26T09:29:01.055Z,6.43
2022-11-26T09:31:30.939Z,5.10
2022-11-26T09:33:59.866Z,4.60
2022-11-26T09:36:28.033Z,4.57
2022-11-26T09:38:57.440Z,5.50
2022-11-26T09:41:48.470Z,5.20
2022-11-26T09:44:54.476Z,5.70
2022-11-26T09:47:28.539Z,5.53
2022-11-26T09:50:10.902Z,5.67
2022-11-26T09:53:03.850Z,12.83
2022-11-26T09:55:38.924Z,8.03
2022-11-26T09:58:25.261Z,6.63
2022-11-26T10:00:57.396Z,6.60
2022-11-26T10:03:31.732Z,5.73
2022-11-26T10:06:14.283Z,5.10
2022-11-26T10:09:00.730Z,6.03
2022-11-26T10:11:50.113Z,7.20
2022-11-26T10:14:35.662Z,7.10
2022-11-26T10:17:24.340Z,3.50
2022-11-26T10:20:21.910Z,3.47
2022-11-26T10:23:17.761Z,4.00
2022-11-26T10:25:49.819Z,6.53
2022-11-26T10:28:29.890Z,20.90
2022-11-26T10:31:00.720Z,6.33
2022-11-26T10:33:53.641Z,4.67
2022-11-26T10:36:28.080Z,4.30
2022-11-26T10:38:56.639Z,4.27
2022-11-26T10:41:31.152Z,4.17
2022-11-26T10:44:41.582Z,3.93
2022-11-26T10:47:26.160Z,3.63
2022-11-26T10:50:14.402Z,3.97
2022-11-26T10:52:52.839Z,4.30
2022-11-26T10:55:41.489Z,4.97
2022-11-26T10:58:20.360Z,5.57
2022-11-26T11:00:50.648Z,5.60
2022-11-26T11:03:51.750Z,7.20
2022-11-26T11:06:33.632Z,6.10
2022-11-26T11:09:00.981Z,6.30
2022-11-26T11:11:31.111Z,7.43
2022-11-26T11:13:58.611Z,5.43
2022-11-26T11:16:43.566Z,6.30
2022-11-26T11:19:24.840Z,5.40
2022-11-26T11:21:52.713Z,5.60
2022-11-26T11:24:28.810Z,6.30
2022-11-26T11:26:58.242Z,5.40
2022-11-26T11:29:37.019Z,5.67
2022-11-26T11:32:07.080Z,5.23
2022-11-26T11:34:42.799Z,5.60
2022-11-26T11:37:14.923Z,5.57
2022-11-26T11:39:43.789Z,6.00
2022-11-26T11:42:31.189Z,7.10
2022-11-26T11:45:01.028Z,6.97
2022-11-26T11:47:41.893Z,6.87
2022-11-26T11:50:29.485Z,7.83
2022-11-26T11:53:04.158Z,8.10
2022-11-26T11:56:08.668Z,8.40
2022-11-26T11:58:53.920Z,8.83
2022-11-26T12:01:36.361Z,9.00
2022-11-26T12:04:42.405Z,8.53
2022-11-26T12:07:34.596Z,6.70
2022-11-26T12:10:37.792Z,6.40
2022-11-26T12:13:08.298Z,6.87
2022-11-26T12:15:46.040Z,7.63
2022-11-26T12:18:45.987Z,9.17
2022-11-26T12:21:16.260Z,6.37
2022-11-26T12:23:52.498Z,5.63
2022-11-26T12:26:37.540Z,7.13
2022-11-26T12:29:21.913Z,6.90
2022-11-26T12:32:01.516Z,5.80
2022-11-26T12:34:40.366Z,6.37
2022-11-26T12:37:21.593Z,6.20
2022-11-26T12:40:04.530Z,5.90
2022-11-26T12:42:44.360Z,7.90
2022-11-26T12:45:30.528Z,4.87
2022-11-26T12:48:07.895Z,4.57
2022-11-26T12:50:45.126Z,3.43
2022-11-26T12:53:45.229Z,3.50
2022-11-26T12:56:20.392Z,4.00
2022-11-26T12:59:00.477Z,3.90
2022-11-26T13:01:28.538Z,3.60
2022-11-26T13:04:21.627Z,4.10
2022-11-26T13:07:36.035Z,3.90
2022-11-26T13:10:24.437Z,3.90
2022-11-26T13:12:56.770Z,4.60
2022-11-26T13:15:39.772Z,4.80
2022-11-26T13:18:20.381Z,5.57
2022-11-26T13:20:55.835Z,4.07
2022-11-26T13:23:38.362Z,4.23
2022-11-26T13:26:26.637Z,4.27
2022-11-26T13:28:56.803Z,5.33
2022-11-26T13:31:29.827Z,10.20
2022-11-26T13:34:22.829Z,10.50
2022-11-26T13:37:18.084Z,5.03
2022-11-26T13:39:54.693Z,6.13
2022-11-26T13:42:40.577Z,9.90
2022-11-26T13:45:42.108Z,25.37
2022-11-26T13:48:44.630Z,5.83
2022-11-26T13:51:43.003Z,4.53
2022-11-26T13:54:16.145Z,12.63
2022-11-26T13:56:45.430Z,8.47
2022-11-26T13:59:26.870Z,5.60
2022-11-26T14:01:56.700Z,4.40
2022-11-26T14:04:23.915Z,5.33
2022-11-26T14:07:06.286Z,3.63
2022-11-26T14:09:42.580Z,3.23
2022-11-26T14:12:14.428Z,4.10
2022-11-26T14:14:43.773Z,4.10
2022-11-26T14:17:12.499Z,4.20
2022-11-26T14:19:42.881Z,4.77
2022-11-26T14:22:31.733Z,4.20
2022-11-26T14:25:09.332Z,4.47
2022-11-26T14:27:41.403Z,4.73
2022-11-26T14:30:08.650Z,4.43
2022-11-26T14:32:55.365Z,4.37
2022-11-26T14:35:34.352Z,8.30
2022-11-26T14:38:22.245Z,23.13
2022-11-26T14:41:00.738Z,19.17
2022-11-26T14:43:30.623Z,14.00
2022-11-26T14:46:16.726Z,13.57
2022-11-26T14:48:50.563Z,15.63
2022-11-26T14:51:24.992Z,71.00
2022-11-26T14:53:53.823Z,37.40
2022-11-26T14:56:24.152Z,22.00
2022-11-26T14:58:56.493Z,14.17
2022-11-26T15:01:25.926Z,9.73
2022-11-26T15:04:05.584Z,8.40
2022-11-26T15:06:38.942Z,5.37
2022-11-26T15:09:11.277Z,9.13
2022-11-26T15:11:42.448Z,5.80
2022-11-26T15:14:21.695Z,9.83
2022-11-26T15:17:01.825Z,9.53
2022-11-26T15:19:33.006Z,7.30
2022-11-26T15:22:04.985Z,15.63
2022-11-26T15:24:32.384Z,11.03
2022-11-26T15:26:59.649Z,10.90
2022-11-26T15:29:31.255Z,9.55
2022-11-26T15:31:58.753Z,9.37
2022-11-26T15:34:28.354Z,7.57
2022-11-26T15:36:55.825Z,6.73
2022-11-26T15:39:29.168Z,8.43
2022-11-26T15:42:03.137Z,7.37
2022-11-26T15:44:39.147Z,6.10
2022-11-26T15:47:22.295Z,5.30
2022-11-26T15:49:55.003Z,5.53
2022-11-26T15:52:38.266Z,6.03
2022-11-26T15:55:12.868Z,7.67
2022-11-26T15:57:42.424Z,9.23
2022-11-26T16:00:33.606Z,6.40
2022-11-26T16:03:00.897Z,10.07
2022-11-26T16:05:38.887Z,14.10
2022-11-26T16:08:28.079Z,14.10
2022-11-26T16:10:57.285Z,16.20
2022-11-26T16:13:29.442Z,12.03
2022-11-26T16:16:20.086Z,11.67
2022-11-26T16:18:54.453Z,14.47
2022-11-26T16:21:36.983Z,11.60
2022-11-26T16:24:07.436Z,8.80
2022-11-26T16:26:58.481Z,7.23
2022-11-26T16:29:27.117Z,7.30
2022-11-26T16:31:54.363Z,6.53
2022-11-26T16:34:22.037Z,7.10
2022-11-26T16:36:49.380Z,6.63
2022-11-26T16:39:17.533Z,5.40
2022-11-26T16:41:44.827Z,5.73
2022-11-26T16:44:13.174Z,6.93
2022-11-26T16:46:41.446Z,7.20
2022-11-26T16:49:10.933Z,12.17
2022-11-26T16:51:38.094Z,11.30
2022-11-26T16:54:05.263Z,12.40
2022-11-26T16:56:38.615Z,10.53
2022-11-26T16:59:22.714Z,13.77
2022-11-26T17:01:50.069Z,19.77
2022-11-26T17:04:19.092Z,10.83
2022-11-26T17:06:46.874Z,12.80
2022-11-26T17:09:21.167Z,9.37
2022-11-26T17:11:49.472Z,8.30
2022-11-26T17:14:16.753Z,7.33
2022-11-26T17:16:44.083Z,7.67
2022-11-26T17:19:14.018Z,5.77
2022-11-26T17:21:41.284Z,5.23
2022-11-26T17:24:09.553Z,4.63
2022-11-26T17:26:36.932Z,7.93
2022-11-26T17:29:04.533Z,7.83
2022-11-26T17:31:31.911Z,7.47
2022-11-26T17:33:59.402Z,5.17
2022-11-26T17:36:26.683Z,3.93
2022-11-26T17:38:54.177Z,3.87
2022-11-26T17:41:21.473Z,7.07
2022-11-26T17:43:48.715Z,4.93
2022-11-26T17:46:19.551Z,4.90
2022-11-26T17:48:49.558Z,4.67
2022-11-26T17:51:16.902Z,7.20
2022-11-26T17:53:45.249Z,7.07
2022-11-26T17:56:21.431Z,6.87
2022-11-26T17:58:48.851Z,7.73
2022-11-26T18:01:17.456Z,8.40
2022-11-26T18:03:45.792Z,13.37
2022-11-26T18:06:18.740Z,11.23
2022-11-26T18:08:46.416Z,15.77
2022-11-26T18:11:15.977Z,8.77
2022-11-26T18:13:43.473Z,8.80
2022-11-26T18:16:11.790Z,7.00
2022-11-26T18:18:40.071Z,5.30
2022-11-26T18:21:07.212Z,4.50
2022-11-26T18:23:34.792Z,4.77
2022-11-26T18:26:01.911Z,9.97
2022-11-26T18:28:30.068Z,8.03
2022-11-26T18:30:58.690Z,6.63
2022-11-26T18:33:26.844Z,7.53
2022-11-26T18:35:54.324Z,6.20
2022-11-26T18:38:21.714Z,4.83
2022-11-26T18:40:58.770Z,7.17
2022-11-26T18:43:25.999Z,5.13
2022-11-26T18:45:53.199Z,5.03
2022-11-26T18:48:21.584Z,5.17
2022-11-26T18:50:59.123Z,5.70
2022-11-26T18:53:27.586Z,7.17
2022-11-26T18:55:56.399Z,8.57
2022-11-26T18:58:25.434Z,4.27
2022-11-26T19:00:58.786Z,3.37
2022-11-26T19:03:28.420Z,3.53
2022-11-26T19:05:56.219Z,4.00
2022-11-26T19:08:24.335Z,7.80
2022-11-26T19:10:51.767Z,8.67
2022-11-26T19:13:19.073Z,6.97
2022-11-26T19:15:47.734Z,3.73
2022-11-26T19:18:16.165Z,4.47
2022-11-26T19:20:51.456Z,5.20
2022-11-26T19:23:24.402Z,6.40
2022-11-26T19:25:52.003Z,6.63
2022-11-26T19:28:19.187Z,5.60
2022-11-26T19:30:59.853Z,5.17
2022-11-26T19:33:27.258Z,4.77
2022-11-26T19:35:55.428Z,4.50
2022-11-26T19:38:23.907Z,5.00
2022-11-26T19:40:58.402Z,5.07
2022-11-26T19:43:27.739Z,5.70
2022-11-26T19:46:11.372Z,8.37
2022-11-26T19:48:41.082Z,7.87
2022-11-26T19:51:10.611Z,18.20
2022-11-26T19:53:38.741Z,11.73
2022-11-26T19:56:09.629Z,14.90
2022-11-26T19:58:37.873Z,12.57
2022-11-26T20:01:10.482Z,8.00
2022-11-26T20:03:37.944Z,10.63
2022-11-26T20:06:09.144Z,8.47
2022-11-26T20:08:39.359Z,7.13
2022-11-26T20:11:08.721Z,13.57
2022-11-26T20:13:38.923Z,18.30
2022-11-26T20:16:09.186Z,14.70
2022-11-26T20:18:38.592Z,11.37
2022-11-26T20:21:10.360Z,9.13
2022-11-26T20:23:41.210Z,8.53
2022-11-26T20:26:31.742Z,8.03
2022-11-26T20:29:09.243Z,7.53
2022-11-26T20:31:43.382Z,8.13
2022-11-26T20:34:15.024Z,7.73
2022-11-26T20:36:42.583Z,7.80
2022-11-26T20:39:18.313Z,7.97
2022-11-26T20:41:46.382Z,7.63
2022-11-26T20:44:14.731Z,7.33
2022-11-26T20:46:42.811Z,7.83
2022-11-26T20:49:12.117Z,9.80
2022-11-26T20:51:39.862Z,17.70
2022-11-26T20:54:07.178Z,53.87
2022-11-26T20:56:35.871Z,30.80
2022-11-26T20:59:03.503Z,44.70
2022-11-26T21:01:31.913Z,22.87
2022-11-26T21:03:59.820Z,22.83
2022-11-26T21:06:31.642Z,15.87
2022-11-26T21:09:05.187Z,9.17
2022-11-26T21:11:32.420Z,10.00
2022-11-26T21:14:01.936Z,9.30
2022-11-26T21:16:32.253Z,8.73
2022-11-26T21:19:01.409Z,9.10
2022-11-26T21:21:29.308Z,9.03
2022-11-26T21:23:58.139Z,9.07
2022-11-26T21:26:26.558Z,8.37
2022-11-26T21:28:56.570Z,8.27
2022-11-26T21:31:24.800Z,7.23
2022-11-26T21:34:01.870Z,6.90
2022-11-26T21:36:31.999Z,6.10
2022-11-26T21:39:01.069Z,7.93
2022-11-26T21:41:28.805Z,6.93
2022-11-26T21:43:55.975Z,7.70
2022-11-26T21:46:27.660Z,7.50
2022-11-26T21:48:56.487Z,7.30
2022-11-26T21:51:30.494Z,8.33
2022-11-26T21:53:58.578Z,13.03
2022-11-26T21:56:33.178Z,8.77
2022-11-26T21:59:01.663Z,9.53
2022-11-26T22:01:30.482Z,8.73
2022-11-26T22:04:04.362Z,8.40
2022-11-26T22:06:32.042Z,7.60
2022-11-26T22:08:59.687Z,7.57
2022-11-26T22:11:29.990Z,7.10
2022-11-26T22:13:57.694Z,6.77
2022-11-26T22:16:27.124Z,7.33
2022-11-26T22:18:56.500Z,6.63
2022-11-26T22:21:29.361Z,6.83
2022-11-26T22:23:57.828Z,6.73
2022-11-26T22:26:26.088Z,7.00
2022-11-26T22:28:55.756Z,6.80
2022-11-26T22:31:25.565Z,7.10
2022-11-26T22:33:59.738Z,7.60
2022-11-26T22:36:27.720Z,7.37
2022-11-26T22:38:55.205Z,8.40
2022-11-26T22:41:23.378Z,6.90
2022-11-26T22:43:51.983Z,7.80
2022-11-26T22:46:22.125Z,8.20
2022-11-26T22:48:54.939Z,8.77
2022-11-26T22:51:22.440Z,18.50
2022-11-26T22:53:57.587Z,16.63
2022-11-26T22:56:26.153Z,11.70
2022-11-26T22:58:53.889Z,9.97
2022-11-26T23:01:24.223Z,8.33
2022-11-26T23:03:52.579Z,7.67
2022-11-26T23:06:22.959Z,10.13
2022-11-26T23:08:51.093Z,8.93
2022-11-26T23:11:20.242Z,8.83
2022-11-26T23:13:49.799Z,7.63
2022-11-26T23:16:18.557Z,7.73
2022-11-26T23:18:46.237Z,6.63
2022-11-26T23:21:40.000Z,7.47
2022-11-26T23:24:08.245Z,6.57
2022-11-26T23:26:37.608Z,6.90
2022-11-26T23:29:06.723Z,7.17
2022-11-26T23:31:37.404Z,6.80
2022-11-26T23:34:05.848Z,7.10
2022-11-26T23:36:33.513Z,7.03
2022-11-26T23:39:02.607Z,7.23
2022-11-26T23:41:30.583Z,6.30
2022-11-26T23:43:57.868Z,6.63
2022-11-26T23:46:28.766Z,6.93
2022-11-26T23:48:56.123Z,7.70
2022-11-26T23:51:27.852Z,11.87
2022-11-26T23:53:55.635Z,12.70
2022-11-26T23:56:33.864Z,16.70
2022-11-26T23:59:03.107Z,14.10
